createdAt,value
2023-03-01T00:00:44.089Z,0.00
2023-03-01T00:01:44.239Z,0.00
2023-03-01T00:02:44.185Z,0.00
2023-03-01T00:03:44.238Z,0.00
2023-03-01T00:04:44.169Z,0.00
2023-03-01T00:05:44.205Z,0.00
2023-03-01T00:06:44.210Z,0.00
2023-03-01T00:07:44.229Z,0.00
2023-03-01T00:08:44.247Z,0.00
2023-03-01T00:09:44.288Z,0.00
2023-03-01T00:10:44.353Z,0.00
2023-03-01T00:11:44.324Z,0.00
2023-03-01T00:12:44.325Z,0.00
2023-03-01T00:13:44.353Z,0.00
2023-03-01T00:14:44.383Z,0.00
2023-03-01T00:15:44.390Z,0.00
2023-03-01T00:16:44.515Z,0.00
2023-03-01T00:17:44.424Z,0.00
2023-03-01T00:18:44.445Z,0.00
2023-03-01T00:19:44.469Z,0.00
2023-03-01T00:20:44.485Z,0.00
2023-03-01T00:21:44.520Z,0.00
2023-03-01T00:22:44.541Z,0.00
2023-03-01T00:23:44.562Z,0.00
2023-03-01T00:24:44.580Z,0.00
2023-03-01T00:25:44.744Z,0.00
2023-03-01T00:26:44.607Z,0.00
2023-03-01T00:27:44.624Z,0.00
2023-03-01T00:28:44.641Z,0.00
2023-03-01T00:29:44.659Z,0.00
2023-03-01T00:30:44.778Z,0.00
2023-03-01T00:31:44.719Z,0.00
2023-03-01T00:32:44.734Z,0.00
2023-03-01T00:33:44.773Z,0.00
2023-03-01T00:34:44.760Z,0.00
2023-03-01T00:35:44.849Z,0.00
2023-03-01T00:36:44.800Z,0.00
2023-03-01T00:37:44.823Z,0.00
2023-03-01T00:38:44.848Z,0.00
2023-03-01T00:39:44.862Z,0.00
2023-03-01T00:40:44.880Z,0.00
2023-03-01T00:41:44.921Z,0.00
2023-03-01T00:42:44.920Z,0.00
2023-03-01T00:43:44.947Z,0.00
2023-03-01T00:44:44.961Z,0.00
2023-03-01T00:45:45.143Z,0.00
2023-03-01T00:46:45.100Z,0.00
2023-03-01T00:47:45.020Z,0.00
2023-03-01T00:48:45.048Z,0.00
2023-03-01T00:49:45.065Z,0.00
2023-03-01T00:50:45.080Z,0.00
2023-03-01T00:51:45.102Z,0.00
2023-03-01T00:52:45.127Z,0.00
2023-03-01T00:53:45.138Z,0.00
2023-03-01T00:54:45.158Z,0.00
2023-03-01T00:55:45.176Z,0.00
2023-03-01T00:56:45.203Z,0.00
2023-03-01T00:57:45.255Z,0.00
2023-03-01T00:58:45.233Z,0.00
2023-03-01T00:59:45.256Z,0.00
2023-03-01T01:00:45.279Z,0.00
2023-03-01T01:01:45.323Z,0.00
2023-03-01T01:02:45.399Z,0.00
2023-03-01T01:03:45.359Z,0.00
2023-03-01T01:04:45.365Z,0.00
2023-03-01T01:05:45.390Z,0.00
2023-03-01T01:06:45.416Z,0.00
2023-03-01T01:07:45.408Z,0.00
2023-03-01T01:08:45.427Z,0.00
2023-03-01T01:09:45.445Z,0.00
2023-03-01T01:10:45.467Z,0.00
2023-03-01T01:11:45.486Z,0.00
2023-03-01T01:12:45.503Z,0.00
2023-03-01T01:13:45.567Z,0.00
2023-03-01T01:14:45.541Z,0.00
2023-03-01T01:15:45.612Z,0.00
2023-03-01T01:16:45.584Z,0.00
2023-03-01T01:17:45.617Z,0.00
2023-03-01T01:18:45.634Z,0.00
2023-03-01T01:19:45.643Z,0.00
2023-03-01T01:20:45.662Z,0.00
2023-03-01T01:21:45.678Z,0.00
2023-03-01T01:22:45.702Z,0.00
2023-03-01T01:23:45.747Z,0.00
2023-03-01T01:24:45.741Z,0.00
2023-03-01T01:25:45.757Z,0.00
2023-03-01T01:26:45.783Z,0.00
2023-03-01T01:27:45.796Z,0.00
2023-03-01T01:28:45.813Z,0.00
2023-03-01T01:29:45.857Z,0.00
2023-03-01T01:30:45.853Z,0.00
2023-03-01T01:31:45.876Z,0.00
2023-03-01T01:32:45.909Z,0.00
2023-03-01T01:33:45.913Z,0.00
2023-03-01T01:34:45.939Z,0.00
2023-03-01T01:35:46.011Z,0.00
2023-03-01T01:36:45.967Z,0.00
2023-03-01T01:37:45.989Z,0.00
2023-03-01T01:38:46.007Z,0.00
2023-03-01T01:39:46.028Z,0.00
2023-03-01T01:40:46.050Z,0.00
2023-03-01T01:41:46.076Z,0.00
2023-03-01T01:42:46.085Z,0.00
2023-03-01T01:43:46.112Z,0.00
2023-03-01T01:44:46.124Z,0.00
2023-03-01T01:45:46.266Z,0.00
2023-03-01T01:46:46.198Z,0.00
2023-03-01T01:47:46.183Z,0.00
2023-03-01T01:48:46.204Z,0.00
2023-03-01T01:49:46.224Z,0.00
2023-03-01T01:50:46.267Z,0.00
2023-03-01T01:51:46.270Z,0.00
2023-03-01T01:52:46.277Z,0.00
2023-03-01T01:53:46.302Z,0.00
2023-03-01T01:54:46.322Z,0.00
2023-03-01T01:55:46.335Z,0.00
2023-03-01T01:56:46.416Z,0.00
2023-03-01T01:57:46.377Z,0.00
2023-03-01T01:58:46.394Z,0.00
2023-03-01T01:59:46.416Z,0.00
2023-03-01T02:00:46.430Z,0.00
2023-03-01T02:01:46.469Z,0.00
2023-03-01T02:02:46.567Z,0.00
2023-03-01T02:03:46.684Z,0.00
2023-03-01T02:04:46.508Z,0.00
2023-03-01T02:05:47.758Z,0.00
2023-03-01T02:06:46.551Z,0.00
2023-03-01T02:07:46.568Z,0.00
2023-03-01T02:08:46.598Z,0.00
2023-03-01T02:09:46.612Z,0.00
2023-03-01T02:10:46.624Z,0.00
2023-03-01T02:11:46.651Z,0.00
2023-03-01T02:12:46.662Z,0.00
2023-03-01T02:13:46.683Z,0.00
2023-03-01T02:14:46.707Z,0.00
2023-03-01T02:15:46.793Z,0.00
2023-03-01T02:16:46.739Z,0.00
2023-03-01T02:17:46.782Z,0.00
2023-03-01T02:18:46.788Z,0.00
2023-03-01T02:19:46.800Z,0.00
2023-03-01T02:20:46.820Z,0.00
2023-03-01T02:21:46.861Z,0.00
2023-03-01T02:22:46.853Z,0.00
2023-03-01T02:23:46.879Z,0.00
2023-03-01T02:24:46.896Z,0.00
2023-03-01T02:25:46.915Z,0.00
2023-03-01T02:26:46.939Z,0.00
2023-03-01T02:27:46.957Z,0.00
2023-03-01T02:28:46.968Z,0.00
2023-03-01T02:29:46.995Z,0.00
2023-03-01T02:30:47.006Z,0.00
2023-03-01T02:31:47.055Z,0.00
2023-03-01T02:32:47.092Z,0.00
2023-03-01T02:33:47.086Z,0.00
2023-03-01T02:34:47.090Z,0.00
2023-03-01T02:35:47.149Z,0.00
2023-03-01T02:36:47.132Z,0.00
2023-03-01T02:37:47.144Z,0.00
2023-03-01T02:38:47.161Z,0.00
2023-03-01T02:39:47.182Z,0.00
2023-03-01T02:40:47.201Z,0.00
2023-03-01T02:41:47.221Z,0.00
2023-03-01T02:42:47.236Z,0.00
2023-03-01T02:43:47.285Z,0.00
2023-03-01T02:44:47.297Z,0.00
2023-03-01T02:45:47.318Z,0.00
2023-03-01T02:46:47.383Z,0.00
2023-03-01T02:47:47.411Z,0.00
2023-03-01T02:48:47.355Z,0.00
2023-03-01T02:49:47.397Z,0.00
2023-03-01T02:50:47.391Z,0.00
2023-03-01T02:51:47.410Z,0.00
2023-03-01T02:52:47.426Z,0.00
2023-03-01T02:53:47.459Z,0.00
2023-03-01T02:54:47.484Z,0.00
2023-03-01T02:55:47.485Z,0.00
2023-03-01T02:56:47.504Z,0.00
2023-03-01T02:57:47.542Z,0.00
2023-03-01T02:58:47.544Z,0.00
2023-03-01T02:59:47.562Z,0.00
2023-03-01T03:00:47.597Z,0.00
2023-03-01T03:01:47.603Z,0.00
2023-03-01T03:02:47.623Z,0.00
2023-03-01T03:03:47.670Z,0.00
2023-03-01T03:04:47.656Z,0.00
2023-03-01T03:05:47.699Z,0.00
2023-03-01T03:06:47.704Z,0.00
2023-03-01T03:07:47.716Z,0.00
2023-03-01T03:08:47.732Z,0.00
2023-03-01T03:09:47.856Z,0.00
2023-03-01T03:10:47.771Z,0.00
2023-03-01T03:11:47.791Z,0.00
2023-03-01T03:12:47.806Z,0.00
2023-03-01T03:13:47.834Z,0.00
2023-03-01T03:14:47.847Z,0.00
2023-03-01T03:15:47.868Z,0.00
2023-03-01T03:16:47.882Z,0.00
2023-03-01T03:17:47.905Z,0.00
2023-03-01T03:18:47.949Z,0.00
2023-03-01T03:19:47.943Z,0.00
2023-03-01T03:20:47.988Z,0.00
2023-03-01T03:21:48.000Z,0.00
2023-03-01T03:22:47.999Z,0.00
2023-03-01T03:23:48.022Z,0.00
2023-03-01T03:24:48.059Z,0.00
2023-03-01T03:25:48.057Z,0.00
2023-03-01T03:26:48.079Z,0.00
2023-03-01T03:27:48.104Z,0.00
2023-03-01T03:28:48.113Z,0.00
2023-03-01T03:29:48.131Z,0.00
2023-03-01T03:30:48.151Z,0.00
2023-03-01T03:31:48.359Z,0.00
2023-03-01T03:32:48.188Z,0.00
2023-03-01T03:33:48.208Z,0.00
2023-03-01T03:34:48.224Z,0.00
2023-03-01T03:35:48.338Z,0.00
2023-03-01T03:36:48.265Z,0.00
2023-03-01T03:37:48.317Z,0.00
2023-03-01T03:38:48.310Z,0.00
2023-03-01T03:39:48.319Z,0.00
2023-03-01T03:40:48.349Z,0.00
2023-03-01T03:41:48.361Z,0.00
2023-03-01T03:42:48.377Z,0.00
2023-03-01T03:43:48.397Z,0.00
2023-03-01T03:44:48.413Z,0.00
2023-03-01T03:45:48.509Z,0.00
2023-03-01T03:46:48.455Z,0.00
2023-03-01T03:47:48.474Z,0.00
2023-03-01T03:48:48.506Z,0.00
2023-03-01T03:49:48.510Z,0.00
2023-03-01T03:50:48.535Z,0.00
2023-03-01T03:51:48.549Z,0.00
2023-03-01T03:52:48.564Z,0.00
2023-03-01T03:53:48.605Z,0.00
2023-03-01T03:54:48.606Z,0.00
2023-03-01T03:55:48.628Z,0.00
2023-03-01T03:56:48.647Z,0.00
2023-03-01T03:57:48.662Z,0.00
2023-03-01T03:58:48.680Z,0.00
2023-03-01T03:59:48.702Z,0.00
2023-03-01T04:00:48.723Z,0.00
2023-03-01T04:01:48.804Z,0.00
2023-03-01T04:02:48.821Z,0.00
2023-03-01T04:03:48.775Z,0.00
2023-03-01T04:04:48.794Z,0.00
2023-03-01T04:05:48.828Z,0.00
2023-03-01T04:06:48.838Z,0.00
2023-03-01T04:07:48.855Z,0.00
2023-03-01T04:08:48.871Z,0.00
2023-03-01T04:09:48.911Z,0.00
2023-03-01T04:10:48.914Z,0.00
2023-03-01T04:11:48.927Z,0.00
2023-03-01T04:12:48.944Z,0.00
2023-03-01T04:13:48.967Z,0.00
2023-03-01T04:14:49.063Z,0.00
2023-03-01T04:15:49.003Z,0.00
2023-03-01T04:16:49.021Z,0.00
2023-03-01T04:17:49.070Z,0.00
2023-03-01T04:18:49.058Z,0.00
2023-03-01T04:19:49.079Z,0.00
2023-03-01T04:20:49.094Z,0.00
2023-03-01T04:21:49.117Z,0.00
2023-03-01T04:22:49.139Z,0.00
2023-03-01T04:23:49.163Z,0.00
2023-03-01T04:24:49.184Z,0.00
2023-03-01T04:25:49.208Z,0.00
2023-03-01T04:26:49.208Z,0.00
2023-03-01T04:27:49.229Z,0.00
2023-03-01T04:28:49.256Z,0.00
2023-03-01T04:29:49.267Z,0.00
2023-03-01T04:30:49.336Z,0.00
2023-03-01T04:31:49.427Z,0.00
2023-03-01T04:32:49.322Z,0.00
2023-03-01T04:33:49.341Z,0.00
2023-03-01T04:34:49.356Z,0.00
2023-03-01T04:35:49.464Z,0.00
2023-03-01T04:36:49.533Z,0.00
2023-03-01T04:37:49.420Z,0.00
2023-03-01T04:38:49.435Z,0.00
2023-03-01T04:39:49.454Z,0.00
2023-03-01T04:40:49.476Z,0.00
2023-03-01T04:41:49.510Z,0.00
2023-03-01T04:42:49.507Z,0.00
2023-03-01T04:43:49.664Z,0.00
2023-03-01T04:44:49.546Z,0.00
2023-03-01T04:45:49.585Z,0.00
2023-03-01T04:46:49.599Z,0.00
2023-03-01T04:47:49.604Z,0.00
2023-03-01T04:48:49.625Z,0.00
2023-03-01T04:49:49.639Z,0.00
2023-03-01T04:50:49.667Z,0.00
2023-03-01T04:51:49.676Z,0.00
2023-03-01T04:52:49.708Z,0.00
2023-03-01T04:53:49.717Z,0.00
2023-03-01T04:54:49.734Z,0.00
2023-03-01T04:55:49.748Z,0.00
2023-03-01T04:56:49.772Z,0.00
2023-03-01T04:57:49.809Z,0.00
2023-03-01T04:58:49.811Z,0.00
2023-03-01T04:59:49.823Z,0.00
2023-03-01T05:00:49.844Z,0.00
2023-03-01T05:01:49.862Z,0.00
2023-03-01T05:02:49.930Z,0.00
2023-03-01T05:03:49.902Z,0.00
2023-03-01T05:04:49.948Z,0.00
2023-03-01T05:05:49.941Z,0.00
2023-03-01T05:06:49.955Z,0.00
2023-03-01T05:07:49.974Z,0.00
2023-03-01T05:08:49.996Z,0.00
2023-03-01T05:09:50.010Z,0.00
2023-03-01T05:10:50.034Z,0.00
2023-03-01T05:11:50.048Z,0.00
2023-03-01T05:12:50.083Z,0.00
2023-03-01T05:13:50.123Z,0.00
2023-03-01T05:14:50.103Z,0.00
2023-03-01T05:15:50.187Z,0.00
2023-03-01T05:16:50.142Z,0.00
2023-03-01T05:17:50.158Z,0.00
2023-03-01T05:18:50.179Z,0.00
2023-03-01T05:19:50.221Z,0.00
2023-03-01T05:20:50.215Z,0.00
2023-03-01T05:21:50.230Z,0.00
2023-03-01T05:22:50.250Z,0.00
2023-03-01T05:23:50.271Z,0.00
2023-03-01T05:24:50.289Z,0.00
2023-03-01T05:25:50.329Z,0.00
2023-03-01T05:26:50.337Z,0.00
2023-03-01T05:27:50.342Z,0.00
2023-03-01T05:28:50.364Z,0.00
2023-03-01T05:29:50.398Z,0.00
2023-03-01T05:30:50.422Z,0.00
2023-03-01T05:31:50.453Z,0.00
2023-03-01T05:32:50.445Z,0.00
2023-03-01T05:33:50.496Z,0.00
2023-03-01T05:34:50.482Z,0.00
2023-03-01T05:35:50.550Z,0.00
2023-03-01T05:36:50.513Z,0.00
2023-03-01T05:37:50.529Z,0.00
2023-03-01T05:38:50.565Z,0.00
2023-03-01T05:39:51.030Z,0.00
2023-03-01T05:40:50.598Z,0.00
2023-03-01T05:41:50.605Z,0.00
2023-03-01T05:42:50.625Z,4.00
2023-03-01T05:43:50.641Z,0.00
2023-03-01T05:44:50.675Z,0.00
2023-03-01T05:45:50.759Z,4.00
2023-03-01T05:46:50.697Z,4.00
2023-03-01T05:47:50.720Z,4.00
2023-03-01T05:48:50.745Z,4.00
2023-03-01T05:49:50.747Z,8.00
2023-03-01T05:50:50.772Z,4.00
2023-03-01T05:51:50.792Z,8.00
2023-03-01T05:52:50.808Z,8.00
2023-03-01T05:53:50.824Z,12.00
2023-03-01T05:54:50.853Z,16.00
2023-03-01T05:55:50.860Z,16.00
2023-03-01T05:56:50.888Z,20.00
2023-03-01T05:57:50.921Z,24.00
2023-03-01T05:58:50.920Z,28.00
2023-03-01T05:59:50.951Z,32.00
2023-03-01T06:00:52.010Z,40.00
2023-03-01T06:01:50.990Z,44.00
2023-03-01T06:02:51.008Z,56.00
2023-03-01T06:03:51.017Z,60.00
2023-03-01T06:04:51.178Z,72.00
2023-03-01T06:05:51.111Z,84.00
2023-03-01T06:06:51.081Z,96.00
2023-03-01T06:07:51.097Z,108.00
2023-03-01T06:08:51.110Z,120.00
2023-03-01T06:09:51.124Z,136.00
2023-03-01T06:10:51.150Z,152.00
2023-03-01T06:11:51.162Z,172.00
2023-03-01T06:12:51.179Z,192.00
2023-03-01T06:13:51.199Z,208.00
2023-03-01T06:14:51.218Z,228.00
2023-03-01T06:15:51.263Z,252.00
2023-03-01T06:16:51.261Z,276.00
2023-03-01T06:17:51.292Z,300.00
2023-03-01T06:18:51.295Z,332.00
2023-03-01T06:19:51.312Z,360.00
2023-03-01T06:20:51.330Z,392.00
2023-03-01T06:21:51.347Z,424.00
2023-03-01T06:22:51.368Z,452.00
2023-03-01T06:23:51.386Z,480.00
2023-03-01T06:24:51.401Z,508.00
2023-03-01T06:25:51.425Z,540.00
2023-03-01T06:26:51.448Z,572.00
2023-03-01T06:27:51.463Z,612.00
2023-03-01T06:28:51.480Z,648.00
2023-03-01T06:29:51.503Z,688.00
2023-03-01T06:30:51.580Z,728.00
2023-03-01T06:31:51.555Z,776.00
2023-03-01T06:32:51.754Z,816.00
2023-03-01T06:33:51.596Z,856.00
2023-03-01T06:34:51.595Z,904.00
2023-03-01T06:35:51.660Z,948.00
2023-03-01T06:36:51.631Z,1000.00
2023-03-01T06:37:51.654Z,1048.00
2023-03-01T06:38:51.664Z,1088.00
2023-03-01T06:39:51.683Z,1112.00
2023-03-01T06:40:51.806Z,1136.00
2023-03-01T06:41:53.687Z,1172.00
2023-03-01T06:42:51.747Z,1228.00
2023-03-01T06:43:51.755Z,1296.00
2023-03-01T06:44:51.779Z,1368.00
2023-03-01T06:45:51.798Z,1432.00
2023-03-01T06:46:51.849Z,1492.00
2023-03-01T06:47:51.829Z,1536.00
2023-03-01T06:48:53.431Z,1568.00
2023-03-01T06:49:51.886Z,1604.00
2023-03-01T06:50:51.954Z,1640.00
2023-03-01T06:51:51.904Z,1672.00
2023-03-01T06:52:51.924Z,1700.00
2023-03-01T06:53:51.940Z,1720.00
2023-03-01T06:54:51.960Z,1740.00
2023-03-01T06:55:51.974Z,1764.00
2023-03-01T06:56:51.994Z,1788.00
2023-03-01T06:57:52.011Z,1820.00
2023-03-01T06:58:52.031Z,1872.00
2023-03-01T06:59:52.053Z,1928.00
2023-03-01T07:00:52.066Z,2000.00
2023-03-01T07:01:52.171Z,2076.00
2023-03-01T07:02:52.121Z,2152.00
2023-03-01T07:03:52.120Z,2236.00
2023-03-01T07:04:52.139Z,2312.00
2023-03-01T07:05:52.183Z,2384.00
2023-03-01T07:06:52.178Z,2456.00
2023-03-01T07:07:52.194Z,2520.00
2023-03-01T07:08:52.212Z,2584.00
2023-03-01T07:09:52.236Z,2644.00
2023-03-01T07:10:52.744Z,2712.00
2023-03-01T07:11:52.269Z,2772.00
2023-03-01T07:12:52.286Z,2832.00
2023-03-01T07:13:52.305Z,2884.00
2023-03-01T07:14:52.325Z,2932.00
2023-03-01T07:15:52.377Z,2964.00
2023-03-01T07:16:52.363Z,2992.00
2023-03-01T07:17:52.384Z,3024.00
2023-03-01T07:18:52.399Z,3048.00
2023-03-01T07:19:52.420Z,3076.00
2023-03-01T07:20:52.435Z,3104.00
2023-03-01T07:21:52.475Z,3136.00
2023-03-01T07:22:52.475Z,3172.00
2023-03-01T07:23:52.491Z,3200.00
2023-03-01T07:24:52.515Z,3224.00
2023-03-01T07:25:52.527Z,3240.00
2023-03-01T07:26:52.550Z,3252.00
2023-03-01T07:27:52.685Z,3264.00
2023-03-01T07:28:52.691Z,3288.00
2023-03-01T07:29:52.619Z,3336.00
2023-03-01T07:30:52.625Z,3396.00
2023-03-01T07:31:52.662Z,3456.00
2023-03-01T07:32:55.321Z,3500.00
2023-03-01T07:33:52.681Z,3524.00
2023-03-01T07:34:52.704Z,3552.00
2023-03-01T07:35:52.753Z,3584.00
2023-03-01T07:36:52.743Z,3620.00
2023-03-01T07:37:52.780Z,3652.00
2023-03-01T07:38:52.780Z,3672.00
2023-03-01T07:39:53.044Z,3684.00
2023-03-01T07:40:52.815Z,3720.00
2023-03-01T07:41:52.838Z,3744.00
2023-03-01T07:42:52.851Z,3756.00
2023-03-01T07:43:53.021Z,3768.00
2023-03-01T07:44:52.892Z,3780.00
2023-03-01T07:45:52.984Z,3796.00
2023-03-01T07:46:53.033Z,3824.00
2023-03-01T07:47:53.047Z,3852.00
2023-03-01T07:48:52.971Z,3876.00
2023-03-01T07:49:53.013Z,3896.00
2023-03-01T07:50:53.055Z,3908.00
2023-03-01T07:51:53.075Z,3916.00
2023-03-01T07:52:53.044Z,3932.00
2023-03-01T07:53:53.081Z,3944.00
2023-03-01T07:54:53.083Z,3964.00
2023-03-01T07:55:53.101Z,3972.00
2023-03-01T07:56:53.122Z,3972.00
2023-03-01T07:57:53.139Z,3968.00
2023-03-01T07:58:53.161Z,3972.00
2023-03-01T07:59:53.185Z,3984.00
2023-03-01T08:00:53.199Z,3984.00
2023-03-01T08:01:53.247Z,3988.00
2023-03-01T08:02:53.238Z,3984.00
2023-03-01T08:03:53.256Z,3988.00
2023-03-01T08:04:53.278Z,3984.00
2023-03-01T08:05:53.293Z,3980.00
2023-03-01T08:06:53.317Z,3976.00
2023-03-01T08:07:53.382Z,3992.00
2023-03-01T08:08:53.363Z,4008.00
2023-03-01T08:09:53.391Z,4020.00
2023-03-01T08:10:53.396Z,4040.00
2023-03-01T08:11:53.454Z,4048.00
2023-03-01T08:12:53.434Z,4056.00
2023-03-01T08:13:54.078Z,4072.00
2023-03-01T08:14:53.475Z,4096.00
2023-03-01T08:15:53.491Z,4108.00
2023-03-01T08:16:53.600Z,4108.00
2023-03-01T08:17:53.529Z,4100.00
2023-03-01T08:18:53.564Z,4088.00
2023-03-01T08:19:53.617Z,4084.00
2023-03-01T08:20:53.595Z,4096.00
2023-03-01T08:21:53.609Z,4088.00
2023-03-01T08:22:53.630Z,4076.00
2023-03-01T08:23:53.650Z,4072.00
2023-03-01T08:24:53.672Z,4080.00
2023-03-01T08:25:53.710Z,4092.00
2023-03-01T08:26:53.717Z,4104.00
2023-03-01T08:27:53.730Z,4116.00
2023-03-01T08:28:53.751Z,4124.00
2023-03-01T08:29:53.780Z,4120.00
2023-03-01T08:30:53.790Z,4124.00
2023-03-01T08:31:54.004Z,4128.00
2023-03-01T08:32:54.084Z,4132.00
2023-03-01T08:33:53.852Z,4148.00
2023-03-01T08:34:53.889Z,4156.00
2023-03-01T08:35:54.046Z,4160.00
2023-03-01T08:36:53.913Z,4156.00
2023-03-01T08:37:53.938Z,4156.00
2023-03-01T08:38:53.963Z,4168.00
2023-03-01T08:39:54.004Z,4172.00
2023-03-01T08:40:53.997Z,4168.00
2023-03-01T08:41:54.039Z,4180.00
2023-03-01T08:42:54.041Z,4204.00
2023-03-01T08:43:54.060Z,4232.00
2023-03-01T08:44:54.081Z,4248.00
2023-03-01T08:45:54.145Z,4260.00
2023-03-01T08:46:54.141Z,4272.00
2023-03-01T08:47:54.143Z,4276.00
2023-03-01T08:48:54.169Z,4276.00
2023-03-01T08:49:54.189Z,4284.00
2023-03-01T08:50:54.213Z,4292.00
2023-03-01T08:51:54.227Z,4300.00
2023-03-01T08:52:54.269Z,4304.00
2023-03-01T08:53:54.270Z,4300.00
2023-03-01T08:54:54.291Z,4284.00
2023-03-01T08:55:54.318Z,4272.00
2023-03-01T08:56:54.342Z,4280.00
2023-03-01T08:57:54.434Z,4300.00
2023-03-01T08:58:54.376Z,4304.00
2023-03-01T08:59:54.412Z,4316.00
2023-03-01T09:00:54.420Z,4324.00
2023-03-01T09:01:54.487Z,4316.00
2023-03-01T09:02:54.471Z,4316.00
2023-03-01T09:03:54.509Z,4312.00
2023-03-01T09:04:54.503Z,4296.00
2023-03-01T09:05:54.524Z,4296.00
2023-03-01T09:06:54.547Z,4288.00
2023-03-01T09:07:54.593Z,4292.00
2023-03-01T09:08:54.604Z,4292.00
2023-03-01T09:09:54.614Z,4304.00
2023-03-01T09:10:54.631Z,4296.00
2023-03-01T09:11:54.657Z,4288.00
2023-03-01T09:12:54.678Z,4280.00
2023-03-01T09:13:54.720Z,4296.00
2023-03-01T09:14:54.725Z,4304.00
2023-03-01T09:15:54.761Z,4288.00
2023-03-01T09:16:54.878Z,4280.00
2023-03-01T09:17:54.788Z,4288.00
2023-03-01T09:18:54.848Z,4296.00
2023-03-01T09:19:54.832Z,4296.00
2023-03-01T09:20:54.868Z,4276.00
2023-03-01T09:21:54.874Z,4280.00
2023-03-01T09:22:54.895Z,4292.00
2023-03-01T09:23:54.925Z,4280.00
2023-03-01T09:24:54.980Z,4268.00
2023-03-01T09:25:54.965Z,4244.00
2023-03-01T09:26:54.986Z,4236.00
2023-03-01T09:27:55.011Z,4232.00
2023-03-01T09:28:55.043Z,4236.00
2023-03-01T09:29:55.068Z,4232.00
2023-03-01T09:30:55.169Z,4212.00
2023-03-01T09:31:55.135Z,4212.00
2023-03-01T09:32:55.114Z,4216.00
2023-03-01T09:33:55.134Z,4196.00
2023-03-01T09:34:55.170Z,4176.00
2023-03-01T09:35:55.244Z,4144.00
2023-03-01T09:36:55.201Z,4132.00
2023-03-01T09:37:55.225Z,4128.00
2023-03-01T09:38:55.245Z,4132.00
2023-03-01T09:39:55.268Z,4108.00
2023-03-01T09:40:55.290Z,4092.00
2023-03-01T09:41:55.312Z,4072.00
2023-03-01T09:42:55.333Z,4072.00
2023-03-01T09:43:56.498Z,4084.00
2023-03-01T09:44:55.376Z,4084.00
2023-03-01T09:45:55.435Z,4076.00
2023-03-01T09:46:55.429Z,4056.00
2023-03-01T09:47:55.445Z,4056.00
2023-03-01T09:48:55.464Z,4068.00
2023-03-01T09:49:55.488Z,4072.00
2023-03-01T09:50:55.520Z,4088.00
2023-03-01T09:51:55.542Z,4100.00
2023-03-01T09:52:55.554Z,4104.00
2023-03-01T09:53:55.596Z,4104.00
2023-03-01T09:54:55.598Z,4108.00
2023-03-01T09:55:55.622Z,4092.00
2023-03-01T09:56:55.643Z,4076.00
2023-03-01T09:57:55.699Z,4076.00
2023-03-01T09:58:55.696Z,4068.00
2023-03-01T09:59:55.729Z,4068.00
2023-03-01T10:00:55.736Z,4068.00
2023-03-01T10:01:55.778Z,4064.00
2023-03-01T10:02:55.777Z,4068.00
2023-03-01T10:03:55.866Z,4072.00
2023-03-01T10:04:55.909Z,4080.00
2023-03-01T10:05:55.860Z,4060.00
2023-03-01T10:06:55.866Z,4052.00
2023-03-01T10:07:55.890Z,4068.00
2023-03-01T10:08:55.924Z,4072.00
2023-03-01T10:09:55.939Z,4060.00
2023-03-01T10:10:55.955Z,4064.00
2023-03-01T10:11:55.983Z,4064.00
2023-03-01T10:12:56.019Z,4052.00
2023-03-01T10:13:56.028Z,4052.00
2023-03-01T10:14:56.045Z,4032.00
2023-03-01T10:15:56.242Z,4024.00
2023-03-01T10:16:56.093Z,4012.00
2023-03-01T10:17:56.143Z,3996.00
2023-03-01T10:18:56.162Z,3992.00
2023-03-01T10:19:56.159Z,3984.00
2023-03-01T10:20:56.189Z,3964.00
2023-03-01T10:21:56.238Z,3944.00
2023-03-01T10:22:56.273Z,3924.00
2023-03-01T10:23:56.247Z,3912.00
2023-03-01T10:24:56.268Z,3904.00
2023-03-01T10:25:56.292Z,3896.00
2023-03-01T10:26:56.316Z,3888.00
2023-03-01T10:27:56.336Z,3880.00
2023-03-01T10:28:56.367Z,3872.00
2023-03-01T10:29:56.382Z,3856.00
2023-03-01T10:30:56.502Z,3856.00
2023-03-01T10:31:56.485Z,3852.00
2023-03-01T10:32:56.499Z,3852.00
2023-03-01T10:33:56.505Z,3848.00
2023-03-01T10:34:56.499Z,3840.00
2023-03-01T10:35:56.623Z,3812.00
2023-03-01T10:36:56.539Z,3796.00
2023-03-01T10:37:56.561Z,3784.00
2023-03-01T10:38:56.582Z,3780.00
2023-03-01T10:39:56.705Z,3780.00
2023-03-01T10:40:56.626Z,3784.00
2023-03-01T10:41:56.652Z,3776.00
2023-03-01T10:42:56.672Z,3772.00
2023-03-01T10:43:56.697Z,3772.00
2023-03-01T10:44:56.730Z,3772.00
2023-03-01T10:45:56.791Z,3764.00
2023-03-01T10:46:56.763Z,3760.00
2023-03-01T10:47:56.938Z,3752.00
2023-03-01T10:48:56.809Z,3744.00
2023-03-01T10:49:56.862Z,3740.00
2023-03-01T10:50:56.853Z,3724.00
2023-03-01T10:51:56.876Z,3708.00
2023-03-01T10:52:56.903Z,3680.00
2023-03-01T10:53:56.922Z,3660.00
2023-03-01T10:54:56.947Z,3644.00
2023-03-01T10:55:56.980Z,3636.00
2023-03-01T10:56:56.992Z,3632.00
2023-03-01T10:57:57.012Z,3640.00
2023-03-01T10:58:57.036Z,3636.00
2023-03-01T10:59:57.065Z,3632.00
2023-03-01T11:00:57.083Z,3624.00
2023-03-01T11:01:57.113Z,3628.00
2023-03-01T11:02:57.126Z,3636.00
2023-03-01T11:03:57.150Z,3628.00
2023-03-01T11:04:57.227Z,3628.00
2023-03-01T11:05:57.214Z,3612.00
2023-03-01T11:06:57.219Z,3600.00
2023-03-01T11:07:57.258Z,3584.00
2023-03-01T11:08:57.264Z,3576.00
2023-03-01T11:09:57.294Z,3564.00
2023-03-01T11:10:57.320Z,3556.00
2023-03-01T11:11:57.338Z,3556.00
2023-03-01T11:12:57.381Z,3552.00
2023-03-01T11:13:57.413Z,3556.00
2023-03-01T11:14:57.406Z,3560.00
2023-03-01T11:15:57.450Z,3564.00
2023-03-01T11:16:57.449Z,3560.00
2023-03-01T11:18:08.957Z,3556.00
2023-03-01T11:18:57.497Z,3556.00
2023-03-01T11:20:02.653Z,3564.00
2023-03-01T11:20:57.542Z,3564.00
2023-03-01T11:21:57.620Z,3568.00
2023-03-01T11:22:57.590Z,3572.00
2023-03-01T11:23:57.619Z,3572.00
2023-03-01T11:25:09.470Z,3572.00
2023-03-01T11:25:57.684Z,3564.00
2023-03-01T11:26:57.693Z,3560.00
2023-03-01T11:27:57.704Z,3544.00
2023-03-01T11:28:57.725Z,3540.00
2023-03-01T11:29:57.750Z,3532.00
2023-03-01T11:31:07.767Z,3528.00
2023-03-01T11:31:58.130Z,3528.00
2023-03-01T11:32:57.958Z,3536.00
2023-03-01T11:33:57.846Z,3536.00
2023-03-01T11:34:57.862Z,3520.00
2023-03-01T11:35:57.918Z,3512.00
2023-03-01T11:36:57.916Z,3504.00
2023-03-01T11:37:57.957Z,3500.00
2023-03-01T11:38:58.006Z,3500.00
2023-03-01T11:39:57.978Z,3492.00
2023-03-01T11:40:58.000Z,3492.00
2023-03-01T11:41:59.726Z,3492.00
2023-03-01T11:42:58.057Z,3492.00
2023-03-01T11:43:58.077Z,3496.00
2023-03-01T11:44:58.102Z,3504.00
2023-03-01T11:45:58.121Z,3516.00
2023-03-01T11:46:58.270Z,3516.00
2023-03-01T11:47:58.166Z,3512.00
2023-03-01T11:48:58.188Z,3508.00
2023-03-01T11:49:58.211Z,3496.00
2023-03-01T11:50:58.235Z,3488.00
2023-03-01T11:51:58.263Z,3480.00
2023-03-01T11:52:58.281Z,3468.00
2023-03-01T11:53:58.334Z,3464.00
2023-03-01T11:54:58.329Z,3472.00
2023-03-01T11:55:58.355Z,3468.00
2023-03-01T11:56:58.373Z,3456.00
2023-03-01T11:57:58.400Z,3448.00
2023-03-01T11:58:58.424Z,3444.00
2023-03-01T11:59:58.451Z,3436.00
2023-03-01T12:00:58.470Z,3436.00
2023-03-01T12:01:58.552Z,3440.00
2023-03-01T12:02:58.518Z,3440.00
2023-03-01T12:03:58.557Z,3440.00
2023-03-01T12:04:58.565Z,3440.00
2023-03-01T12:05:58.591Z,3436.00
2023-03-01T12:06:58.637Z,3428.00
2023-03-01T12:07:58.706Z,3420.00
2023-03-01T12:08:58.665Z,3416.00
2023-03-01T12:09:58.712Z,3404.00
2023-03-01T12:10:58.729Z,3392.00
2023-03-01T12:11:58.734Z,3388.00
2023-03-01T12:12:58.856Z,3388.00
2023-03-01T12:13:58.781Z,3384.00
2023-03-01T12:14:58.801Z,3388.00
2023-03-01T12:15:58.826Z,3388.00
2023-03-01T12:16:58.949Z,3388.00
2023-03-01T12:17:58.923Z,3392.00
2023-03-01T12:18:58.903Z,3392.00
2023-03-01T12:19:58.925Z,3388.00
2023-03-01T12:20:58.952Z,3372.00
2023-03-01T12:21:58.968Z,3380.00
2023-03-01T12:23:03.637Z,3380.00
2023-03-01T12:23:59.016Z,3376.00
2023-03-01T12:24:59.036Z,3372.00
2023-03-01T12:25:59.097Z,3368.00
2023-03-01T12:26:59.098Z,3356.00
2023-03-01T12:27:59.111Z,3344.00
2023-03-01T12:28:59.135Z,3340.00
2023-03-01T12:29:59.175Z,3336.00
2023-03-01T12:30:59.182Z,3332.00
2023-03-01T12:31:59.357Z,3328.00
2023-03-01T12:32:59.261Z,3324.00
2023-03-01T12:33:59.259Z,3328.00
2023-03-01T12:34:59.278Z,3320.00
2023-03-01T12:35:59.337Z,3320.00
2023-03-01T12:36:59.332Z,3316.00
2023-03-01T12:37:59.351Z,3308.00
2023-03-01T12:38:59.401Z,3300.00
2023-03-01T12:39:59.405Z,3296.00